Архив погоды на Айон Острове

Метеограмма Айон Остров
Вторник, 27 Июня
Время местн. Темп Ветер Видим Явления Облачность нижн/средн/верх Атм. давл. Влжн Точка росы ВНГО R Сост. почвы Tg s
Напр Скр Прв ур.ст ур.м изм
12:00 +7.1° С 2 7 20 км - переменная облачность 753 754 +0.8 79% +3.8° более 2.5 км - - - -
09:00 +10.8° Ю 4 7 20 км - облачно с прояснениями 752 753 +0.6 62% +3.8° более 2.5 км 0 Влажная (без луж) +4° -
06:00 +7° Ю 5 7 20 км - облачно 751 753 -0.3 77% +3.2° более 2.5 км - - - -
03:00 +4.7° Ю,Ю-В 5 7 20 км - облачно 752 753 -0.9 84% +2.2° более 2.5 км - - - -
00:00 +5.4° Ю 6 8 20 км - облачно 753 754 -0.9 74% +1.1° более 2.5 км - - - -
Понедельник, 26 Июня
Время местн. Темп Ветер Видим Явления Облачность нижн/средн/верх Атм. давл. Влжн Точка росы ВНГО R Сост. почвы Tg s
Напр Скр Прв ур.ст ур.м изм
21:00 +6.8° Ю 6 9 20 км - облачно 753 755 -0.4 68% +1.3° более 2.5 км 0 - - -
18:00 +8.3° Ю 7 9 20 км - преимущественно облачно 754 755 -1.3 65% +2.1° более 2.5 км - - - -
15:00 +8.6° З,Ю-З 5 7 20 км - преимущественно облачно 755 756 -1.6 55% более 2.5 км - - - -
12:00 +5.2° Ю-З 4 6 20 км - облачно с прояснениями 757 758 -1.2 75% +1.1° более 2.5 км - - - -
09:00 +1.8° З 2 5 20 км - преимущественно облачно 758 759 -0.6 90% +0.3° 600 м 0 Влажная (без луж) -
06:00 +1.3° З,Ю-З 4 5 20 км - переменная облачность 759 760 -0.7 90% -0.2° 600 м - - - -
03:00 +0.1° З 2 5 20 км - облачно с прояснениями 759 760 -0.5 93% -0.9° 600 м - - - -
00:00 -0.1° З,С-З 3 7 20 км - облачно с прояснениями 760 761 -0.2 94% -1° 600 м - - - -
Воскресенье, 25 Июня
Время местн. Темп Ветер Видим Явления Облачность нижн/средн/верх Атм. давл. Влжн Точка росы ВНГО R Сост. почвы Tg s
Напр Скр Прв ур.ст ур.м изм
21:00 +0.8° З 3 6 20 км - переменная облачность 760 761 +0.6 93% -0.2° 600 м 0 - - -
18:00 +1° З 5 10 20 км - облачно с прояснениями 759 761 +0.6 91% -0.3° 600 м - - - -
15:00 +0.6° З,С-З 8 11 20 км - облачно 759 760 +1.1 91% -0.7° 300 м - - - -
12:00 +1.2° З,С-З 7 10 20 км - переменная облачность 758 759 +1.5 92% 600 м - - - -
09:00 +0.8° С-З 6 10 20 км - облачно 756 757 +2.2 88% -0.9° 600 м 1 Сырая (есть малые или большие лужи) +2° -
06:00 +1° С-З 6 8 20 км небо без изменений {дождь} облачно 754 755 +1.7 92% -0.2° 600 м - - - -
03:00 +1.2° С 5 8 20 км небо без изменений {дождь} облачно 768 754 +1.4 94% +0.4° 300 м - - - -
00:00 +1.1° С 4 9 4 км сильный непрерывный дождь облачно 751 752 +1.5 98% +0.8° 300 м - - - -
Суббота, 24 Июня
Время местн. Темп Ветер Видим Явления Облачность нижн/средн/верх Атм. давл. Влжн Точка росы ВНГО R Сост. почвы Tg s
Напр Скр Прв ур.ст ур.м изм
21:00 +1.6° С,С-В 5 9 4 км сильный непрерывный дождь облачно 749 751 +2.1 98% +1.3° 300 м 1 - - -
18:00 +2.7° С 3 8 20 км - облачно 747 749 +2.1 94% +1.9° 200 м - - - -
15:00 +9.1° З,Ю-З 5 11 20 км - облачно 745 746 +0.5 82% +6.2° более 2.5 км - - - -
12:00 +15.5° Ю-З 7 11 20 км - облачно 745 746 -0.6 68% +9.6° более 2.5 км - - - -
09:00 +16.3° Ю 9 12 20 км - облачно 745 747 -1.5 62% +9° более 2.5 км 0 Влажная (без луж) +8° -